Bartonsville, Vermont
Current Conditions -  °F | °C
As of 10:23 AM on Monday 24 Nov 2014 (Local Time) from KVSF Reporting Station
Haze Haze  
Wind Chill: 42°   Ceiling: 900
Heat Index: 42°   Visibility: 3mi
Dew Point: 41°   Wind: 0mph
Humidity: 96%   Direction: NA
Pressure: 29.63"   Gusts: NA
Location:  43.2811°N, 72.6352°W
Report Text: KVSF 241523Z AUTO 00000KT 3SM BR FEW002 OVC009 06/05 A2963 RMK AO2 CIG 007V013 T00560050
Loading
Personal Weather Stations






























Interactive Weather Map New forecast layout! Learn more

10-Day Weather Forecast

Advertisements
Track Severe Weather on mobile